createdAt,value
2022-11-16T00:01:42.537Z,82.89
2022-11-16T00:04:12.844Z,82.93
2022-11-16T00:06:41.179Z,82.89
2022-11-16T00:09:23.406Z,82.94
2022-11-16T00:11:52.838Z,82.77
2022-11-16T00:14:21.199Z,83.24
2022-11-16T00:16:51.467Z,82.90
2022-11-16T00:19:19.717Z,82.69
2022-11-16T00:21:47.959Z,82.77
2022-11-16T00:24:17.240Z,82.87
2022-11-16T00:26:45.518Z,82.91
2022-11-16T00:29:16.046Z,82.50
2022-11-16T00:31:45.952Z,82.73
2022-11-16T00:34:15.398Z,82.37
2022-11-16T00:36:43.635Z,82.42
2022-11-16T00:39:12.724Z,82.91
2022-11-16T00:41:40.627Z,83.38
2022-11-16T00:44:08.739Z,83.12
2022-11-16T00:46:36.710Z,82.53
2022-11-16T00:49:05.454Z,83.14
2022-11-16T00:51:36.001Z,83.20
2022-11-16T00:54:05.771Z,82.73
2022-11-16T00:56:36.202Z,83.59
2022-11-16T00:59:05.420Z,83.54
2022-11-16T01:01:34.228Z,83.34
2022-11-16T01:04:02.552Z,83.11
2022-11-16T01:06:30.376Z,83.21
2022-11-16T01:08:59.551Z,83.43
2022-11-16T01:11:44.759Z,83.28
2022-11-16T01:14:12.875Z,83.58
2022-11-16T01:16:43.259Z,83.44
2022-11-16T01:19:11.477Z,83.29
2022-11-16T01:21:39.307Z,83.28
2022-11-16T01:24:08.938Z,83.26
2022-11-16T01:26:36.828Z,82.94
2022-11-16T01:29:05.112Z,83.11
2022-11-16T01:31:37.239Z,82.51
2022-11-16T01:34:05.861Z,82.65
2022-11-16T01:36:35.443Z,82.58
2022-11-16T01:39:03.952Z,82.90
2022-11-16T01:41:44.238Z,83.34
2022-11-16T01:44:59.863Z,83.03
2022-11-16T01:47:28.335Z,83.54
2022-11-16T01:50:03.365Z,83.54
2022-11-16T01:52:37.499Z,84.12
2022-11-16T01:55:06.063Z,83.63
2022-11-16T01:57:50.908Z,83.83
2022-11-16T02:00:19.922Z,83.83
2022-11-16T02:03:04.752Z,83.79
2022-11-16T02:05:51.352Z,83.52
2022-11-16T02:08:49.282Z,83.17
2022-11-16T02:11:30.835Z,82.95
2022-11-16T02:14:12.584Z,83.38
2022-11-16T02:16:51.718Z,82.92
2022-11-16T02:19:58.646Z,83.20
2022-11-16T02:22:39.727Z,83.27
2022-11-16T02:25:13.710Z,83.36
2022-11-16T02:28:04.751Z,83.13
2022-11-16T02:30:34.886Z,83.27
2022-11-16T02:33:05.735Z,83.15
2022-11-16T02:35:41.434Z,83.04
2022-11-16T02:38:14.347Z,83.05
2022-11-16T02:40:46.208Z,83.27
2022-11-16T02:43:23.026Z,83.13
2022-11-16T02:45:56.776Z,83.32
2022-11-16T02:48:32.394Z,83.54
2022-11-16T02:51:04.152Z,83.68
2022-11-16T02:53:37.944Z,83.95
2022-11-16T02:56:06.635Z,83.42
2022-11-16T02:58:34.925Z,83.71
2022-11-16T03:01:09.688Z,83.69
2022-11-16T03:03:46.511Z,83.73
2022-11-16T03:06:21.128Z,83.71
2022-11-16T03:08:54.915Z,83.71
2022-11-16T03:11:40.294Z,83.80
2022-11-16T03:14:14.937Z,84.02
2022-11-16T03:16:48.535Z,84.00
2022-11-16T03:19:20.855Z,83.62
2022-11-16T03:21:52.861Z,83.74
2022-11-16T03:24:21.638Z,83.91
2022-11-16T03:26:55.294Z,84.21
2022-11-16T03:29:31.443Z,84.23
2022-11-16T03:32:10.640Z,84.03
2022-11-16T03:34:41.770Z,84.16
2022-11-16T03:37:11.344Z,84.12
2022-11-16T03:39:40.545Z,83.89
2022-11-16T03:42:14.023Z,84.08
2022-11-16T03:44:46.118Z,84.47
2022-11-16T03:47:15.483Z,84.25
2022-11-16T03:49:45.855Z,84.20
2022-11-16T03:52:16.871Z,84.27
2022-11-16T03:54:45.046Z,84.40
2022-11-16T03:57:17.375Z,84.39
2022-11-16T03:59:47.220Z,84.54
2022-11-16T04:02:16.475Z,84.91
2022-11-16T04:05:01.771Z,84.75
2022-11-16T04:07:47.173Z,85.37
2022-11-16T04:10:33.409Z,85.37
2022-11-16T04:13:20.439Z,85.75
2022-11-16T04:16:05.654Z,86.32
2022-11-16T04:18:52.799Z,86.18
2022-11-16T04:21:43.694Z,87.22
2022-11-16T04:24:16.347Z,86.29
2022-11-16T04:27:03.548Z,86.38
2022-11-16T04:29:31.858Z,85.99
2022-11-16T04:32:17.157Z,85.88
2022-11-16T04:35:04.014Z,85.50
2022-11-16T04:37:50.046Z,86.01
2022-11-16T04:40:25.071Z,85.44
2022-11-16T04:42:54.848Z,85.53
2022-11-16T04:45:41.575Z,84.82
2022-11-16T04:48:11.047Z,85.13
2022-11-16T04:50:41.834Z,84.62
2022-11-16T04:53:09.902Z,85.03
2022-11-16T04:55:45.508Z,85.21
2022-11-16T04:58:15.070Z,84.75
2022-11-16T05:00:43.325Z,84.85
2022-11-16T05:03:11.839Z,84.71
2022-11-16T05:05:41.451Z,84.73
2022-11-16T05:08:09.431Z,84.89
2022-11-16T05:10:38.215Z,84.82
2022-11-16T05:13:06.131Z,84.40
2022-11-16T05:15:34.894Z,84.26
2022-11-16T05:18:03.535Z,84.19
2022-11-16T05:20:49.246Z,84.10
2022-11-16T05:23:35.891Z,83.68
2022-11-16T05:26:10.042Z,83.84
2022-11-16T05:28:39.098Z,84.00
2022-11-16T05:31:08.317Z,84.16
2022-11-16T05:33:36.767Z,83.62
2022-11-16T05:36:05.287Z,83.67
2022-11-16T05:38:34.764Z,83.81
2022-11-16T05:41:02.696Z,83.71
2022-11-16T05:43:31.342Z,83.20
2022-11-16T05:46:14.352Z,83.49
2022-11-16T05:48:42.184Z,83.21
2022-11-16T05:51:10.060Z,83.24
2022-11-16T05:53:39.196Z,83.38
2022-11-16T05:56:08.287Z,83.38
2022-11-16T05:58:39.572Z,83.43
2022-11-16T06:01:07.388Z,83.08
2022-11-16T06:03:36.429Z,83.20
2022-11-16T06:06:05.784Z,83.13
2022-11-16T06:08:33.991Z,83.08
2022-11-16T06:11:09.564Z,83.10
2022-11-16T06:13:38.495Z,83.09
2022-11-16T06:16:07.971Z,83.66
2022-11-16T06:18:39.303Z,83.54
2022-11-16T06:21:08.101Z,83.44
2022-11-16T06:23:35.980Z,83.53
2022-11-16T06:26:04.592Z,83.39
2022-11-16T06:28:35.650Z,83.31
2022-11-16T06:31:04.908Z,83.59
2022-11-16T06:33:37.350Z,83.70
2022-11-16T06:36:10.094Z,83.73
2022-11-16T06:38:38.462Z,83.80
2022-11-16T06:41:06.846Z,83.89
2022-11-16T06:43:41.904Z,83.70
2022-11-16T06:46:09.931Z,83.47
2022-11-16T06:48:40.085Z,83.52
2022-11-16T06:51:12.370Z,83.19
2022-11-16T06:53:40.279Z,83.72
2022-11-16T06:56:11.251Z,83.59
2022-11-16T06:58:45.357Z,83.47
2022-11-16T07:01:15.319Z,84.03
2022-11-16T07:03:45.483Z,84.07
2022-11-16T07:06:15.203Z,84.45
2022-11-16T07:08:46.037Z,84.43
2022-11-16T07:11:17.136Z,83.74
2022-11-16T07:13:46.304Z,84.01
2022-11-16T07:16:14.620Z,83.94
2022-11-16T07:18:49.775Z,84.23
2022-11-16T07:21:17.874Z,84.35
2022-11-16T07:23:46.574Z,84.71
2022-11-16T07:26:19.610Z,84.64
2022-11-16T07:28:54.654Z,84.75
2022-11-16T07:31:23.918Z,85.42
2022-11-16T07:34:11.680Z,84.54
2022-11-16T07:36:45.918Z,85.00
2022-11-16T07:39:13.964Z,85.16
2022-11-16T07:41:44.236Z,85.16
2022-11-16T07:44:33.675Z,85.40
2022-11-16T07:47:11.509Z,85.44
2022-11-16T07:49:39.544Z,85.64
2022-11-16T07:52:14.455Z,85.58
2022-11-16T07:54:53.859Z,85.65
2022-11-16T07:57:25.039Z,85.80
2022-11-16T07:59:56.266Z,85.62
2022-11-16T08:02:24.397Z,85.92
2022-11-16T08:04:53.342Z,85.85
2022-11-16T08:07:26.079Z,85.64
2022-11-16T08:09:57.079Z,85.65
2022-11-16T08:12:25.073Z,84.95
2022-11-16T08:14:54.022Z,85.02
2022-11-16T08:17:23.252Z,85.20
2022-11-16T08:19:51.398Z,84.85
2022-11-16T08:22:19.513Z,85.26
2022-11-16T08:24:47.737Z,84.93
2022-11-16T08:27:17.397Z,84.26
2022-11-16T08:29:48.248Z,84.09
2022-11-16T08:32:16.820Z,83.60
2022-11-16T08:34:46.677Z,83.11
2022-11-16T08:37:14.637Z,82.90
2022-11-16T08:39:46.288Z,82.79
2022-11-16T08:42:14.182Z,82.26
2022-11-16T08:44:46.574Z,82.43
2022-11-16T08:47:16.377Z,81.75
2022-11-16T08:50:05.006Z,80.83
2022-11-16T08:52:33.584Z,80.28
2022-11-16T08:55:02.706Z,80.67
2022-11-16T08:57:31.243Z,80.07
2022-11-16T09:00:01.713Z,80.45
2022-11-16T09:02:29.551Z,80.72
2022-11-16T09:04:57.376Z,80.70
2022-11-16T09:07:26.608Z,80.19
2022-11-16T09:09:54.466Z,79.69
2022-11-16T09:12:22.271Z,79.38
2022-11-16T09:14:50.080Z,78.81
2022-11-16T09:17:22.959Z,79.16
2022-11-16T09:19:51.220Z,79.02
2022-11-16T09:22:19.059Z,79.04
2022-11-16T09:24:48.605Z,78.96
2022-11-16T09:27:16.874Z,78.05
2022-11-16T09:29:44.778Z,78.34
2022-11-16T09:32:12.631Z,77.48
2022-11-16T09:34:40.420Z,76.90
2022-11-16T09:37:11.502Z,76.57
2022-11-16T09:39:39.294Z,76.64
2022-11-16T09:42:22.718Z,76.62
2022-11-16T09:45:08.532Z,77.16
2022-11-16T09:47:45.633Z,77.09
2022-11-16T09:50:26.535Z,75.77
2022-11-16T09:52:57.338Z,76.12
2022-11-16T09:55:28.899Z,76.53
2022-11-16T09:58:00.951Z,76.16
2022-11-16T10:00:31.707Z,76.42
2022-11-16T10:03:05.095Z,75.94
2022-11-16T10:05:38.410Z,76.55
2022-11-16T10:08:14.293Z,76.75
2022-11-16T10:10:52.467Z,76.84
2022-11-16T10:13:32.404Z,76.89
2022-11-16T10:16:13.326Z,77.58
2022-11-16T10:18:53.606Z,78.00
2022-11-16T10:21:46.422Z,77.41
2022-11-16T10:24:27.023Z,77.40
2022-11-16T10:27:05.755Z,77.51
2022-11-16T10:29:47.670Z,78.13
2022-11-16T10:32:25.946Z,78.38
2022-11-16T10:34:56.262Z,78.41
2022-11-16T10:37:30.275Z,78.11
2022-11-16T10:39:58.370Z,78.78
2022-11-16T10:42:35.839Z,78.67
2022-11-16T10:45:14.255Z,79.24
2022-11-16T10:47:50.059Z,78.95
2022-11-16T10:50:31.814Z,79.41
2022-11-16T10:53:00.127Z,79.00
2022-11-16T10:55:29.301Z,78.40
2022-11-16T10:57:59.659Z,78.76
2022-11-16T11:00:37.506Z,78.74
2022-11-16T11:03:05.659Z,78.79
2022-11-16T11:05:35.531Z,78.77
2022-11-16T11:08:06.299Z,78.40
2022-11-16T11:10:36.847Z,78.56
2022-11-16T11:13:27.292Z,78.28
2022-11-16T11:16:15.970Z,77.70
2022-11-16T11:18:43.890Z,78.60
2022-11-16T11:21:18.605Z,78.08
2022-11-16T11:23:48.683Z,77.81
2022-11-16T11:26:37.335Z,78.21
2022-11-16T11:29:17.692Z,78.40
2022-11-16T11:31:50.634Z,78.14
2022-11-16T11:34:21.568Z,78.53
2022-11-16T11:36:53.252Z,78.06
2022-11-16T11:39:30.983Z,78.48
2022-11-16T11:42:05.372Z,78.13
2022-11-16T11:44:39.498Z,78.30
2022-11-16T11:50:18.595Z,77.97
2022-11-16T11:52:58.924Z,78.20
2022-11-16T11:55:27.271Z,77.81
2022-11-16T11:57:57.253Z,78.41
2022-11-16T12:00:26.111Z,78.34
2022-11-16T12:03:41.519Z,77.92
2022-11-16T12:06:19.630Z,78.02
2022-11-16T12:09:19.948Z,77.65
2022-11-16T12:11:59.230Z,77.64
2022-11-16T12:14:52.391Z,77.78
2022-11-16T12:17:29.349Z,77.73
2022-11-16T12:20:10.057Z,78.03
2022-11-16T12:23:03.724Z,78.02
2022-11-16T12:25:39.271Z,77.64
2022-11-16T12:28:24.465Z,78.42
2022-11-16T12:31:03.418Z,77.98
2022-11-16T12:33:43.964Z,77.54
2022-11-16T12:36:25.715Z,78.10
2022-11-16T12:39:05.192Z,77.93
2022-11-16T12:41:53.465Z,77.86
2022-11-16T12:44:30.417Z,77.64
2022-11-16T12:47:08.364Z,77.61
2022-11-16T12:49:52.320Z,77.78
2022-11-16T12:52:38.351Z,77.95
2022-11-16T12:55:25.775Z,78.36
2022-11-16T12:58:11.460Z,78.21
2022-11-16T13:01:03.697Z,78.33
2022-11-16T13:03:42.630Z,78.13
2022-11-16T13:06:14.280Z,77.45
2022-11-16T13:08:50.165Z,77.66
2022-11-16T13:11:23.793Z,77.36
2022-11-16T13:13:59.291Z,77.52
2022-11-16T13:16:28.503Z,76.92
2022-11-16T13:18:57.137Z,77.07
2022-11-16T13:21:44.511Z,77.61
2022-11-16T13:24:34.259Z,77.71
2022-11-16T13:27:15.745Z,77.72
2022-11-16T13:29:47.436Z,76.81
2022-11-16T13:32:21.337Z,77.35
2022-11-16T13:34:50.290Z,77.18
2022-11-16T13:37:44.305Z,77.38
2022-11-16T13:40:26.245Z,77.15
2022-11-16T13:43:18.779Z,77.79
2022-11-16T13:45:57.954Z,76.98
2022-11-16T13:48:31.353Z,77.11
2022-11-16T13:51:02.107Z,77.22
2022-11-16T13:56:28.670Z,77.21
2022-11-16T13:58:59.448Z,77.66
2022-11-16T14:01:57.573Z,77.57
2022-11-16T14:04:40.386Z,77.59
2022-11-16T14:07:29.894Z,77.53
2022-11-16T14:09:57.794Z,77.65
2022-11-16T14:12:58.081Z,77.89
2022-11-16T14:15:32.271Z,77.66
2022-11-16T14:18:36.991Z,77.38
2022-11-16T14:21:14.507Z,78.12
2022-11-16T14:24:16.455Z,78.03
2022-11-16T14:26:57.439Z,78.26
2022-11-16T14:29:51.193Z,78.56
2022-11-16T14:32:22.893Z,78.07
2022-11-16T14:34:52.847Z,78.61
2022-11-16T14:37:33.485Z,78.65
2022-11-16T14:40:05.771Z,78.80
2022-11-16T14:43:01.545Z,78.40
2022-11-16T14:45:29.246Z,79.22
2022-11-16T14:48:02.097Z,79.00
2022-11-16T14:50:30.293Z,79.58
2022-11-16T14:53:03.161Z,79.79
2022-11-16T14:55:31.073Z,79.03
2022-11-16T14:58:09.366Z,79.06
2022-11-16T15:00:39.578Z,79.04
2022-11-16T15:03:12.705Z,79.16
2022-11-16T15:05:40.943Z,79.21
2022-11-16T15:08:22.064Z,79.12
2022-11-16T15:10:52.581Z,79.07
2022-11-16T15:13:23.290Z,79.46
2022-11-16T15:16:09.488Z,79.88
2022-11-16T15:18:37.381Z,79.46
2022-11-16T15:21:05.263Z,79.90
2022-11-16T15:23:33.420Z,80.02
2022-11-16T15:26:02.381Z,80.45
2022-11-16T15:28:32.871Z,79.78
2022-11-16T15:31:04.787Z,79.69
2022-11-16T15:33:36.931Z,79.63
2022-11-16T15:36:22.742Z,79.73
2022-11-16T15:38:52.366Z,79.81
2022-11-16T15:41:20.704Z,79.85
2022-11-16T15:44:12.175Z,80.12
2022-11-16T15:46:43.563Z,79.41
2022-11-16T15:49:23.202Z,79.03
2022-11-16T15:51:51.010Z,80.12
2022-11-16T15:54:25.221Z,79.79
2022-11-16T15:56:56.030Z,79.90
2022-11-16T15:59:28.503Z,79.92
2022-11-16T16:01:57.721Z,79.99
2022-11-16T16:04:26.899Z,80.60
2022-11-16T16:06:56.590Z,80.06
2022-11-16T16:09:27.288Z,80.09
2022-11-16T16:11:56.482Z,80.14
2022-11-16T16:14:27.000Z,80.17
2022-11-16T16:16:57.825Z,79.89
2022-11-16T16:19:33.411Z,80.61
2022-11-16T16:22:01.890Z,79.74
2022-11-16T16:24:42.069Z,80.16
2022-11-16T16:27:12.383Z,80.07
2022-11-16T16:29:40.309Z,80.00
2022-11-16T16:32:15.101Z,80.11
2022-11-16T16:34:43.093Z,80.09
2022-11-16T16:37:16.039Z,80.38
2022-11-16T16:39:43.961Z,80.08
2022-11-16T16:42:14.223Z,79.77
2022-11-16T16:44:42.454Z,79.95
2022-11-16T16:47:12.239Z,80.12
2022-11-16T16:49:40.476Z,79.96
2022-11-16T16:52:08.675Z,80.09
2022-11-16T16:54:36.476Z,80.18
2022-11-16T16:57:04.437Z,80.36
2022-11-16T16:59:32.282Z,80.21
2022-11-16T17:02:00.433Z,80.31
2022-11-16T17:04:29.782Z,80.86
2022-11-16T17:06:57.661Z,80.32
2022-11-16T17:09:25.471Z,80.46
2022-11-16T17:11:53.286Z,81.10
2022-11-16T17:14:24.339Z,80.36
2022-11-16T17:16:52.432Z,80.42
2022-11-16T17:19:20.997Z,80.96
2022-11-16T17:21:51.996Z,80.56
2022-11-16T17:24:20.039Z,80.92
2022-11-16T17:26:48.783Z,80.83
2022-11-16T17:29:16.641Z,80.98
2022-11-16T17:31:44.869Z,80.92
2022-11-16T17:34:14.040Z,81.27
2022-11-16T17:36:42.467Z,80.58
2022-11-16T17:39:11.826Z,80.95
2022-11-16T17:41:39.628Z,80.98
2022-11-16T17:44:07.530Z,80.87
2022-11-16T17:46:35.755Z,80.75
2022-11-16T17:49:03.827Z,80.98
2022-11-16T17:51:31.736Z,81.02
2022-11-16T17:53:59.612Z,81.38
2022-11-16T17:56:29.685Z,81.26
2022-11-16T17:58:58.448Z,81.23
2022-11-16T18:01:27.131Z,80.80
2022-11-16T18:03:55.319Z,80.72
2022-11-16T18:06:25.037Z,81.11
2022-11-16T18:08:53.566Z,81.13
2022-11-16T18:11:23.095Z,80.88
2022-11-16T18:13:55.411Z,80.83
2022-11-16T18:16:25.691Z,81.03
2022-11-16T18:18:57.278Z,80.72
2022-11-16T18:21:25.680Z,81.08
2022-11-16T18:23:53.904Z,81.21
2022-11-16T18:26:23.342Z,81.23
2022-11-16T18:28:52.515Z,80.97
2022-11-16T18:31:23.167Z,80.74
2022-11-16T18:33:52.008Z,81.31
2022-11-16T18:36:21.628Z,81.10
2022-11-16T18:38:49.666Z,80.95
2022-11-16T18:41:20.214Z,81.52
2022-11-16T18:43:52.989Z,81.30
2022-11-16T18:46:24.166Z,81.28
2022-11-16T18:48:52.444Z,81.77
2022-11-16T18:51:21.459Z,81.06
2022-11-16T18:53:49.680Z,81.26
2022-11-16T18:56:18.086Z,81.32
2022-11-16T18:58:51.457Z,81.27
2022-11-16T19:01:23.721Z,81.52
2022-11-16T19:03:52.596Z,81.34
2022-11-16T19:06:21.055Z,81.37
2022-11-16T19:08:55.357Z,81.54
2022-11-16T19:11:25.323Z,81.23
2022-11-16T19:13:54.547Z,81.14
2022-11-16T19:16:25.062Z,81.28
2022-11-16T19:18:53.792Z,81.17
2022-11-16T19:21:22.856Z,81.36
2022-11-16T19:23:51.980Z,81.30
2022-11-16T19:26:21.635Z,81.22
2022-11-16T19:28:51.135Z,81.79
2022-11-16T19:31:20.930Z,81.17
2022-11-16T19:33:54.931Z,81.50
2022-11-16T19:36:23.083Z,81.70
2022-11-16T19:38:51.436Z,81.21
2022-11-16T19:41:21.550Z,80.66
2022-11-16T19:43:51.204Z,81.07
2022-11-16T19:46:21.316Z,81.44
2022-11-16T19:48:50.693Z,81.12
2022-11-16T19:51:20.477Z,81.63
2022-11-16T19:53:48.705Z,81.33
2022-11-16T19:56:18.614Z,80.84
2022-11-16T19:58:47.018Z,81.32
2022-11-16T20:01:16.977Z,81.12
2022-11-16T20:03:45.507Z,81.16
2022-11-16T20:06:16.707Z,81.13
2022-11-16T20:08:48.885Z,81.64
2022-11-16T20:11:18.414Z,81.45
2022-11-16T20:13:46.278Z,80.97
2022-11-16T20:16:15.602Z,81.48
2022-11-16T20:18:44.665Z,81.76
2022-11-16T20:21:28.041Z,81.31
2022-11-16T20:24:04.720Z,81.35
2022-11-16T20:26:36.370Z,81.78
2022-11-16T20:29:04.826Z,81.73
2022-11-16T20:31:34.206Z,81.93
2022-11-16T20:34:04.272Z,81.82
2022-11-16T20:36:35.811Z,81.93
2022-11-16T20:39:03.634Z,81.38
2022-11-16T20:41:33.344Z,81.70
2022-11-16T20:44:02.509Z,81.79
2022-11-16T20:46:33.761Z,82.09
2022-11-16T20:49:01.870Z,81.59
2022-11-16T20:51:30.487Z,81.96
2022-11-16T20:53:59.822Z,81.66
2022-11-16T20:56:28.217Z,82.42
2022-11-16T20:58:56.049Z,81.99
2022-11-16T21:01:28.734Z,82.01
2022-11-16T21:03:57.548Z,82.19
2022-11-16T21:06:26.189Z,82.26
2022-11-16T21:08:54.407Z,82.43
2022-11-16T21:11:25.710Z,82.26
2022-11-16T21:14:11.593Z,82.69
2022-11-16T21:16:40.173Z,82.45
2022-11-16T21:19:08.233Z,82.80
2022-11-16T21:21:36.082Z,82.87
2022-11-16T21:24:03.855Z,82.35
2022-11-16T21:26:34.148Z,82.70
2022-11-16T21:29:02.761Z,82.58
2022-11-16T21:31:32.617Z,82.50
2022-11-16T21:34:01.463Z,82.55
2022-11-16T21:36:31.643Z,82.34
2022-11-16T21:38:59.593Z,82.86
2022-11-16T21:41:28.100Z,83.08
2022-11-16T21:43:57.460Z,83.02
2022-11-16T21:46:27.136Z,82.80
2022-11-16T21:48:56.733Z,82.77
2022-11-16T21:51:26.710Z,82.93
2022-11-16T21:53:55.166Z,83.16
2022-11-16T21:56:24.409Z,82.65
2022-11-16T21:58:53.676Z,82.88
2022-11-16T22:01:24.236Z,83.07
2022-11-16T22:04:06.109Z,83.01
2022-11-16T22:06:51.407Z,83.29
2022-11-16T22:09:19.240Z,82.86
2022-11-16T22:11:47.092Z,82.97
2022-11-16T22:14:14.887Z,83.00
2022-11-16T22:16:44.025Z,83.00
2022-11-16T22:19:11.863Z,83.06
2022-11-16T22:21:39.669Z,82.98
2022-11-16T22:24:08.311Z,83.20
2022-11-16T22:26:37.925Z,83.37
2022-11-16T22:29:05.702Z,83.82
2022-11-16T22:31:33.495Z,82.91
2022-11-16T22:34:02.631Z,83.35
2022-11-16T22:36:30.440Z,83.24
2022-11-16T22:38:58.240Z,83.27
2022-11-16T22:41:26.083Z,83.09
2022-11-16T22:43:54.131Z,82.72
2022-11-16T22:46:21.904Z,82.82
2022-11-16T22:48:49.726Z,82.85
2022-11-16T22:51:22.146Z,82.83
2022-11-16T22:53:53.827Z,82.93
2022-11-16T22:56:21.972Z,83.04
2022-11-16T22:58:49.811Z,83.11
2022-11-16T23:01:17.859Z,83.16
2022-11-16T23:03:45.947Z,82.49
2022-11-16T23:06:13.873Z,82.66
2022-11-16T23:08:43.380Z,82.36
2022-11-16T23:11:31.396Z,82.26
2022-11-16T23:14:17.080Z,82.60
2022-11-16T23:16:45.743Z,82.16
2022-11-16T23:19:32.975Z,82.42
2022-11-16T23:22:18.874Z,82.13
2022-11-16T23:25:05.788Z,82.05
2022-11-16T23:27:41.000Z,81.80
2022-11-16T23:30:12.833Z,82.25
2022-11-16T23:32:41.223Z,82.16
2022-11-16T23:35:10.224Z,81.92
2022-11-16T23:37:51.719Z,82.03
2022-11-16T23:40:21.435Z,82.00
2022-11-16T23:43:06.616Z,82.47
2022-11-16T23:45:34.481Z,82.56
2022-11-16T23:48:02.382Z,82.68
2022-11-16T23:50:30.268Z,82.66
2022-11-16T23:52:58.063Z,82.67
2022-11-16T23:55:27.672Z,83.23
2022-11-16T23:57:55.928Z,83.28
